sensor_id;sensor_type;location;lat;lon;timestamp;P1;durP1;ratioP1;P2;durP2;ratioP2
25381;SDS011;16307;42.896;20.874;2022-12-24T00:01:05;115.50;;;54.05;;
25381;SDS011;16307;42.896;20.874;2022-12-24T00:03:51;115.25;;;50.65;;
25381;SDS011;16307;42.896;20.874;2022-12-24T00:06:37;111.68;;;49.67;;
25381;SDS011;16307;42.896;20.874;2022-12-24T00:09:23;109.35;;;50.13;;
25381;SDS011;16307;42.896;20.874;2022-12-24T00:12:09;123.55;;;51.40;;
25381;SDS011;16307;42.896;20.874;2022-12-24T00:14:55;119.10;;;50.25;;
25381;SDS011;16307;42.896;20.874;2022-12-24T00:17:41;105.53;;;47.45;;
25381;SDS011;16307;42.896;20.874;2022-12-24T00:20:27;106.85;;;47.42;;
25381;SDS011;16307;42.896;20.874;2022-12-24T00:23:13;111.50;;;50.40;;
25381;SDS011;16307;42.896;20.874;2022-12-24T00:26:00;103.63;;;51.78;;
25381;SDS011;16307;42.896;20.874;2022-12-24T00:28:46;110.88;;;49.92;;
25381;SDS011;16307;42.896;20.874;2022-12-24T00:31:31;122.15;;;51.42;;
25381;SDS011;16307;42.896;20.874;2022-12-24T00:34:17;130.73;;;55.50;;
25381;SDS011;16307;42.896;20.874;2022-12-24T00:37:03;119.53;;;54.90;;
25381;SDS011;16307;42.896;20.874;2022-12-24T00:39:49;128.40;;;54.75;;
25381;SDS011;16307;42.896;20.874;2022-12-24T00:42:35;124.50;;;54.67;;
25381;SDS011;16307;42.896;20.874;2022-12-24T00:45:21;132.98;;;57.15;;
25381;SDS011;16307;42.896;20.874;2022-12-24T00:48:07;126.57;;;52.38;;
25381;SDS011;16307;42.896;20.874;2022-12-24T00:50:53;134.32;;;51.70;;
25381;SDS011;16307;42.896;20.874;2022-12-24T00:53:39;146.80;;;53.72;;
25381;SDS011;16307;42.896;20.874;2022-12-24T00:56:25;137.43;;;52.28;;
25381;SDS011;16307;42.896;20.874;2022-12-24T00:59:11;139.23;;;53.25;;
25381;SDS011;16307;42.896;20.874;2022-12-24T01:01:57;132.00;;;54.00;;
25381;SDS011;16307;42.896;20.874;2022-12-24T01:04:43;137.95;;;56.30;;
25381;SDS011;16307;42.896;20.874;2022-12-24T01:07:48;133.55;;;51.25;;
25381;SDS011;16307;42.896;20.874;2022-12-24T01:10:33;137.77;;;53.15;;
25381;SDS011;16307;42.896;20.874;2022-12-24T01:13:19;133.45;;;50.42;;
25381;SDS011;16307;42.896;20.874;2022-12-24T01:16:12;123.60;;;50.83;;
25381;SDS011;16307;42.896;20.874;2022-12-24T01:19:00;132.13;;;50.85;;
25381;SDS011;16307;42.896;20.874;2022-12-24T01:21:46;134.52;;;49.05;;
25381;SDS011;16307;42.896;20.874;2022-12-24T01:24:32;120.22;;;48.17;;
25381;SDS011;16307;42.896;20.874;2022-12-24T01:27:19;119.35;;;48.53;;
25381;SDS011;16307;42.896;20.874;2022-12-24T01:30:06;115.03;;;47.90;;
25381;SDS011;16307;42.896;20.874;2022-12-24T01:32:53;107.95;;;43.22;;
25381;SDS011;16307;42.896;20.874;2022-12-24T01:35:42;120.45;;;46.75;;
25381;SDS011;16307;42.896;20.874;2022-12-24T01:38:28;115.75;;;45.05;;
25381;SDS011;16307;42.896;20.874;2022-12-24T01:41:15;114.45;;;46.50;;
25381;SDS011;16307;42.896;20.874;2022-12-24T01:47:23;116.80;;;44.50;;
25381;SDS011;16307;42.896;20.874;2022-12-24T01:50:12;113.07;;;44.42;;
25381;SDS011;16307;42.896;20.874;2022-12-24T01:53:00;96.28;;;43.70;;
25381;SDS011;16307;42.896;20.874;2022-12-24T01:55:46;100.50;;;42.22;;
25381;SDS011;16307;42.896;20.874;2022-12-24T01:58:33;104.50;;;42.33;;
25381;SDS011;16307;42.896;20.874;2022-12-24T02:01:24;103.15;;;43.90;;
25381;SDS011;16307;42.896;20.874;2022-12-24T02:04:18;103.68;;;43.88;;
25381;SDS011;16307;42.896;20.874;2022-12-24T02:07:10;98.70;;;41.83;;
25381;SDS011;16307;42.896;20.874;2022-12-24T02:09:57;105.22;;;44.65;;
25381;SDS011;16307;42.896;20.874;2022-12-24T02:12:45;98.38;;;42.55;;
25381;SDS011;16307;42.896;20.874;2022-12-24T02:15:34;97.63;;;42.35;;
25381;SDS011;16307;42.896;20.874;2022-12-24T02:18:26;102.30;;;41.13;;
25381;SDS011;16307;42.896;20.874;2022-12-24T02:27:53;100.55;;;39.00;;
25381;SDS011;16307;42.896;20.874;2022-12-24T02:31:02;99.68;;;39.72;;
25381;SDS011;16307;42.896;20.874;2022-12-24T02:33:55;90.32;;;38.17;;
25381;SDS011;16307;42.896;20.874;2022-12-24T02:36:50;98.05;;;38.38;;
25381;SDS011;16307;42.896;20.874;2022-12-24T02:39:41;96.88;;;39.50;;
25381;SDS011;16307;42.896;20.874;2022-12-24T02:42:31;88.68;;;38.45;;
25381;SDS011;16307;42.896;20.874;2022-12-24T02:45:22;90.45;;;37.45;;
25381;SDS011;16307;42.896;20.874;2022-12-24T02:48:12;90.20;;;38.33;;
25381;SDS011;16307;42.896;20.874;2022-12-24T02:51:03;95.10;;;37.15;;
25381;SDS011;16307;42.896;20.874;2022-12-24T02:53:51;89.28;;;38.50;;
25381;SDS011;16307;42.896;20.874;2022-12-24T03:08:59;81.05;;;33.15;;
25381;SDS011;16307;42.896;20.874;2022-12-24T03:12:03;108.65;;;40.33;;
25381;SDS011;16307;42.896;20.874;2022-12-24T03:14:52;78.38;;;34.40;;
25381;SDS011;16307;42.896;20.874;2022-12-24T03:17:38;75.40;;;30.40;;
25381;SDS011;16307;42.896;20.874;2022-12-24T03:20:27;57.33;;;26.25;;
25381;SDS011;16307;42.896;20.874;2022-12-24T03:23:18;59.78;;;27.73;;
25381;SDS011;16307;42.896;20.874;2022-12-24T03:26:05;47.25;;;23.00;;
25381;SDS011;16307;42.896;20.874;2022-12-24T03:28:53;58.55;;;27.85;;
25381;SDS011;16307;42.896;20.874;2022-12-24T03:31:49;75.18;;;30.55;;
25381;SDS011;16307;42.896;20.874;2022-12-24T03:34:36;82.22;;;33.60;;
25381;SDS011;16307;42.896;20.874;2022-12-24T03:37:22;81.93;;;34.28;;
25381;SDS011;16307;42.896;20.874;2022-12-24T03:40:09;82.88;;;34.80;;
25381;SDS011;16307;42.896;20.874;2022-12-24T03:42:56;83.72;;;35.33;;
25381;SDS011;16307;42.896;20.874;2022-12-24T03:45:42;79.78;;;34.00;;
25381;SDS011;16307;42.896;20.874;2022-12-24T03:48:28;76.60;;;33.28;;
25381;SDS011;16307;42.896;20.874;2022-12-24T03:51:17;69.72;;;31.13;;
25381;SDS011;16307;42.896;20.874;2022-12-24T03:54:05;66.10;;;30.48;;
25381;SDS011;16307;42.896;20.874;2022-12-24T03:56:51;69.80;;;30.88;;
25381;SDS011;16307;42.896;20.874;2022-12-24T03:59:37;68.53;;;30.23;;
25381;SDS011;16307;42.896;20.874;2022-12-24T04:02:23;74.03;;;32.15;;
25381;SDS011;16307;42.896;20.874;2022-12-24T04:05:13;70.57;;;31.55;;
25381;SDS011;16307;42.896;20.874;2022-12-24T04:08:00;76.38;;;33.20;;
25381;SDS011;16307;42.896;20.874;2022-12-24T04:10:46;65.13;;;31.92;;
25381;SDS011;16307;42.896;20.874;2022-12-24T04:13:32;68.28;;;31.33;;
25381;SDS011;16307;42.896;20.874;2022-12-24T04:16:17;75.35;;;31.85;;
25381;SDS011;16307;42.896;20.874;2022-12-24T04:19:03;67.20;;;28.95;;
25381;SDS011;16307;42.896;20.874;2022-12-24T04:21:49;69.18;;;31.42;;
25381;SDS011;16307;42.896;20.874;2022-12-24T04:24:35;72.13;;;31.85;;
25381;SDS011;16307;42.896;20.874;2022-12-24T04:27:21;75.75;;;31.08;;
25381;SDS011;16307;42.896;20.874;2022-12-24T04:30:15;72.60;;;31.60;;
25381;SDS011;16307;42.896;20.874;2022-12-24T04:33:00;80.85;;;33.95;;
25381;SDS011;16307;42.896;20.874;2022-12-24T04:35:47;75.78;;;33.22;;
25381;SDS011;16307;42.896;20.874;2022-12-24T04:38:33;72.10;;;30.20;;
25381;SDS011;16307;42.896;20.874;2022-12-24T04:41:20;78.43;;;32.33;;
25381;SDS011;16307;42.896;20.874;2022-12-24T04:44:09;79.35;;;33.25;;
25381;SDS011;16307;42.896;20.874;2022-12-24T04:46:55;74.85;;;32.17;;
25381;SDS011;16307;42.896;20.874;2022-12-24T04:49:41;76.05;;;32.42;;
25381;SDS011;16307;42.896;20.874;2022-12-24T04:52:27;78.88;;;32.55;;
25381;SDS011;16307;42.896;20.874;2022-12-24T04:55:13;77.63;;;32.50;;
25381;SDS011;16307;42.896;20.874;2022-12-24T04:57:59;78.10;;;33.33;;
25381;SDS011;16307;42.896;20.874;2022-12-24T05:00:44;77.30;;;32.10;;
25381;SDS011;16307;42.896;20.874;2022-12-24T05:03:31;74.57;;;31.02;;
25381;SDS011;16307;42.896;20.874;2022-12-24T05:06:19;67.05;;;28.85;;
25381;SDS011;16307;42.896;20.874;2022-12-24T05:09:06;63.65;;;28.50;;
25381;SDS011;16307;42.896;20.874;2022-12-24T05:11:52;74.78;;;31.67;;
25381;SDS011;16307;42.896;20.874;2022-12-24T05:14:38;71.38;;;30.15;;
25381;SDS011;16307;42.896;20.874;2022-12-24T05:17:24;67.97;;;30.00;;
25381;SDS011;16307;42.896;20.874;2022-12-24T05:20:10;64.30;;;30.73;;
25381;SDS011;16307;42.896;20.874;2022-12-24T05:22:56;65.63;;;29.35;;
25381;SDS011;16307;42.896;20.874;2022-12-24T05:26:01;69.15;;;29.15;;
25381;SDS011;16307;42.896;20.874;2022-12-24T05:29:07;67.03;;;30.15;;
25381;SDS011;16307;42.896;20.874;2022-12-24T05:31:53;67.28;;;28.85;;
25381;SDS011;16307;42.896;20.874;2022-12-24T05:34:39;58.50;;;26.60;;
25381;SDS011;16307;42.896;20.874;2022-12-24T05:37:25;54.13;;;24.73;;
25381;SDS011;16307;42.896;20.874;2022-12-24T05:40:10;48.20;;;22.60;;
25381;SDS011;16307;42.896;20.874;2022-12-24T05:42:57;47.47;;;22.10;;
25381;SDS011;16307;42.896;20.874;2022-12-24T05:45:43;42.70;;;21.73;;
25381;SDS011;16307;42.896;20.874;2022-12-24T05:48:28;59.53;;;26.45;;
25381;SDS011;16307;42.896;20.874;2022-12-24T05:51:15;65.78;;;29.50;;
25381;SDS011;16307;42.896;20.874;2022-12-24T05:54:04;68.90;;;30.27;;
25381;SDS011;16307;42.896;20.874;2022-12-24T05:56:50;67.10;;;29.88;;
25381;SDS011;16307;42.896;20.874;2022-12-24T05:59:36;68.78;;;29.70;;
25381;SDS011;16307;42.896;20.874;2022-12-24T06:02:22;64.88;;;28.38;;
25381;SDS011;16307;42.896;20.874;2022-12-24T06:05:08;68.25;;;29.73;;
25381;SDS011;16307;42.896;20.874;2022-12-24T06:07:54;69.13;;;29.98;;
25381;SDS011;16307;42.896;20.874;2022-12-24T06:10:40;71.32;;;28.65;;
25381;SDS011;16307;42.896;20.874;2022-12-24T06:13:26;65.95;;;30.17;;
25381;SDS011;16307;42.896;20.874;2022-12-24T06:16:14;71.57;;;30.73;;
25381;SDS011;16307;42.896;20.874;2022-12-24T06:19:02;68.55;;;29.58;;
25381;SDS011;16307;42.896;20.874;2022-12-24T06:21:51;456.45;;;163.55;;
25381;SDS011;16307;42.896;20.874;2022-12-24T06:24:37;119.53;;;51.40;;
25381;SDS011;16307;42.896;20.874;2022-12-24T06:27:23;71.43;;;34.92;;
25381;SDS011;16307;42.896;20.874;2022-12-24T06:30:09;57.88;;;28.95;;
25381;SDS011;16307;42.896;20.874;2022-12-24T06:32:55;56.40;;;27.73;;
25381;SDS011;16307;42.896;20.874;2022-12-24T06:35:40;57.17;;;27.90;;
25381;SDS011;16307;42.896;20.874;2022-12-24T06:38:28;58.60;;;27.67;;
25381;SDS011;16307;42.896;20.874;2022-12-24T06:41:15;55.72;;;26.63;;
25381;SDS011;16307;42.896;20.874;2022-12-24T06:44:02;51.58;;;24.83;;
25381;SDS011;16307;42.896;20.874;2022-12-24T06:46:49;49.92;;;24.98;;
25381;SDS011;16307;42.896;20.874;2022-12-24T06:49:34;51.05;;;25.20;;
25381;SDS011;16307;42.896;20.874;2022-12-24T06:52:20;54.42;;;26.42;;
25381;SDS011;16307;42.896;20.874;2022-12-24T06:55:06;53.08;;;25.02;;
25381;SDS011;16307;42.896;20.874;2022-12-24T06:57:52;50.00;;;25.15;;
25381;SDS011;16307;42.896;20.874;2022-12-24T07:00:38;55.42;;;25.73;;
25381;SDS011;16307;42.896;20.874;2022-12-24T07:03:24;52.47;;;25.83;;
25381;SDS011;16307;42.896;20.874;2022-12-24T07:06:14;57.85;;;27.83;;
25381;SDS011;16307;42.896;20.874;2022-12-24T07:09:04;53.65;;;26.45;;
25381;SDS011;16307;42.896;20.874;2022-12-24T07:11:50;61.30;;;27.35;;
25381;SDS011;16307;42.896;20.874;2022-12-24T07:14:35;53.90;;;26.98;;
25381;SDS011;16307;42.896;20.874;2022-12-24T07:17:22;53.53;;;27.55;;
25381;SDS011;16307;42.896;20.874;2022-12-24T07:20:09;53.28;;;27.33;;
25381;SDS011;16307;42.896;20.874;2022-12-24T07:22:58;51.50;;;25.73;;
25381;SDS011;16307;42.896;20.874;2022-12-24T07:25:43;58.30;;;28.30;;
25381;SDS011;16307;42.896;20.874;2022-12-24T07:28:29;55.47;;;27.70;;
25381;SDS011;16307;42.896;20.874;2022-12-24T07:31:16;54.15;;;28.02;;
25381;SDS011;16307;42.896;20.874;2022-12-24T07:34:02;60.00;;;31.50;;
25381;SDS011;16307;42.896;20.874;2022-12-24T07:36:48;62.60;;;31.75;;
25381;SDS011;16307;42.896;20.874;2022-12-24T07:39:34;58.53;;;28.67;;
25381;SDS011;16307;42.896;20.874;2022-12-24T07:42:19;55.00;;;28.13;;
25381;SDS011;16307;42.896;20.874;2022-12-24T07:45:07;53.70;;;27.95;;
25381;SDS011;16307;42.896;20.874;2022-12-24T07:47:53;59.97;;;28.85;;
25381;SDS011;16307;42.896;20.874;2022-12-24T07:50:39;58.75;;;27.83;;
25381;SDS011;16307;42.896;20.874;2022-12-24T07:53:26;59.40;;;28.55;;
25381;SDS011;16307;42.896;20.874;2022-12-24T07:56:13;59.17;;;28.45;;
25381;SDS011;16307;42.896;20.874;2022-12-24T07:59:00;61.40;;;29.83;;
25381;SDS011;16307;42.896;20.874;2022-12-24T08:01:45;70.35;;;36.50;;
25381;SDS011;16307;42.896;20.874;2022-12-24T08:04:32;77.13;;;39.97;;
25381;SDS011;16307;42.896;20.874;2022-12-24T08:07:20;75.35;;;34.47;;
25381;SDS011;16307;42.896;20.874;2022-12-24T08:10:06;86.63;;;40.60;;
25381;SDS011;16307;42.896;20.874;2022-12-24T08:12:53;90.85;;;39.05;;
25381;SDS011;16307;42.896;20.874;2022-12-24T08:15:39;92.78;;;40.22;;
25381;SDS011;16307;42.896;20.874;2022-12-24T08:18:25;90.65;;;40.92;;
25381;SDS011;16307;42.896;20.874;2022-12-24T08:21:11;89.45;;;40.60;;
25381;SDS011;16307;42.896;20.874;2022-12-24T08:23:57;87.63;;;40.05;;
25381;SDS011;16307;42.896;20.874;2022-12-24T08:26:43;90.07;;;40.78;;
25381;SDS011;16307;42.896;20.874;2022-12-24T08:29:29;92.97;;;40.40;;
25381;SDS011;16307;42.896;20.874;2022-12-24T08:32:15;91.47;;;41.17;;
25381;SDS011;16307;42.896;20.874;2022-12-24T08:35:01;88.38;;;42.28;;
25381;SDS011;16307;42.896;20.874;2022-12-24T08:37:48;92.95;;;41.13;;
25381;SDS011;16307;42.896;20.874;2022-12-24T08:40:33;84.90;;;40.53;;
25381;SDS011;16307;42.896;20.874;2022-12-24T08:43:19;81.28;;;39.55;;
25381;SDS011;16307;42.896;20.874;2022-12-24T08:46:05;73.63;;;35.28;;
25381;SDS011;16307;42.896;20.874;2022-12-24T08:48:51;71.10;;;35.10;;
25381;SDS011;16307;42.896;20.874;2022-12-24T08:51:38;82.60;;;37.53;;
25381;SDS011;16307;42.896;20.874;2022-12-24T08:54:24;78.32;;;36.85;;
25381;SDS011;16307;42.896;20.874;2022-12-24T08:57:10;81.60;;;39.45;;
25381;SDS011;16307;42.896;20.874;2022-12-24T08:59:57;76.15;;;37.53;;
25381;SDS011;16307;42.896;20.874;2022-12-24T09:02:42;64.55;;;33.20;;
25381;SDS011;16307;42.896;20.874;2022-12-24T09:05:29;76.72;;;34.58;;
25381;SDS011;16307;42.896;20.874;2022-12-24T09:08:15;69.82;;;34.17;;
25381;SDS011;16307;42.896;20.874;2022-12-24T09:11:01;65.30;;;32.58;;
25381;SDS011;16307;42.896;20.874;2022-12-24T09:13:49;68.63;;;32.38;;
25381;SDS011;16307;42.896;20.874;2022-12-24T09:16:35;71.32;;;36.03;;
25381;SDS011;16307;42.896;20.874;2022-12-24T09:19:21;86.57;;;41.72;;
25381;SDS011;16307;42.896;20.874;2022-12-24T09:22:07;117.80;;;53.88;;
25381;SDS011;16307;42.896;20.874;2022-12-24T09:24:53;121.85;;;54.35;;
25381;SDS011;16307;42.896;20.874;2022-12-24T09:27:39;130.75;;;58.28;;
25381;SDS011;16307;42.896;20.874;2022-12-24T09:30:25;125.95;;;55.15;;
25381;SDS011;16307;42.896;20.874;2022-12-24T09:33:11;114.88;;;51.13;;
25381;SDS011;16307;42.896;20.874;2022-12-24T09:35:57;121.95;;;54.40;;
25381;SDS011;16307;42.896;20.874;2022-12-24T09:38:44;127.13;;;54.70;;
25381;SDS011;16307;42.896;20.874;2022-12-24T09:41:36;126.22;;;54.92;;
25381;SDS011;16307;42.896;20.874;2022-12-24T09:44:39;110.35;;;50.30;;
25381;SDS011;16307;42.896;20.874;2022-12-24T09:50:27;106.20;;;50.15;;
25381;SDS011;16307;42.896;20.874;2022-12-24T09:53:41;106.22;;;47.83;;
25381;SDS011;16307;42.896;20.874;2022-12-24T09:56:38;100.65;;;48.00;;
25381;SDS011;16307;42.896;20.874;2022-12-24T09:59:32;97.22;;;46.05;;
25381;SDS011;16307;42.896;20.874;2022-12-24T10:02:30;93.32;;;44.30;;
25381;SDS011;16307;42.896;20.874;2022-12-24T10:05:23;95.55;;;42.55;;
25381;SDS011;16307;42.896;20.874;2022-12-24T10:08:30;61.47;;;31.02;;
25381;SDS011;16307;42.896;20.874;2022-12-24T10:11:45;55.63;;;28.65;;
25381;SDS011;16307;42.896;20.874;2022-12-24T10:14:41;60.97;;;27.70;;
25381;SDS011;16307;42.896;20.874;2022-12-24T10:21:13;43.20;;;23.85;;
25381;SDS011;16307;42.896;20.874;2022-12-24T10:24:11;45.15;;;23.60;;
25381;SDS011;16307;42.896;20.874;2022-12-24T10:27:01;45.33;;;23.80;;
25381;SDS011;16307;42.896;20.874;2022-12-24T10:29:56;50.65;;;25.25;;
25381;SDS011;16307;42.896;20.874;2022-12-24T10:35:33;53.22;;;24.95;;
25381;SDS011;16307;42.896;20.874;2022-12-24T10:38:22;33.45;;;19.90;;
25381;SDS011;16307;42.896;20.874;2022-12-24T10:41:09;39.90;;;22.08;;
25381;SDS011;16307;42.896;20.874;2022-12-24T10:43:56;49.00;;;24.50;;
25381;SDS011;16307;42.896;20.874;2022-12-24T10:46:44;38.00;;;20.92;;
25381;SDS011;16307;42.896;20.874;2022-12-24T10:49:48;44.58;;;22.73;;
25381;SDS011;16307;42.896;20.874;2022-12-24T10:52:40;45.03;;;25.33;;
25381;SDS011;16307;42.896;20.874;2022-12-24T10:55:29;52.65;;;26.60;;
25381;SDS011;16307;42.896;20.874;2022-12-24T10:58:17;51.88;;;27.70;;
25381;SDS011;16307;42.896;20.874;2022-12-24T11:01:05;49.00;;;27.25;;
25381;SDS011;16307;42.896;20.874;2022-12-24T11:03:58;58.83;;;29.90;;
25381;SDS011;16307;42.896;20.874;2022-12-24T11:06:56;60.72;;;34.05;;
25381;SDS011;16307;42.896;20.874;2022-12-24T11:09:58;63.78;;;31.40;;
25381;SDS011;16307;42.896;20.874;2022-12-24T11:12:51;57.22;;;31.60;;
25381;SDS011;16307;42.896;20.874;2022-12-24T11:16:05;60.38;;;30.35;;
25381;SDS011;16307;42.896;20.874;2022-12-24T11:18:56;57.38;;;28.98;;
25381;SDS011;16307;42.896;20.874;2022-12-24T11:21:43;54.85;;;29.63;;
25381;SDS011;16307;42.896;20.874;2022-12-24T11:24:30;51.28;;;26.35;;
25381;SDS011;16307;42.896;20.874;2022-12-24T11:27:22;51.97;;;25.35;;
25381;SDS011;16307;42.896;20.874;2022-12-24T11:35:47;48.20;;;24.05;;
25381;SDS011;16307;42.896;20.874;2022-12-24T11:38:34;43.20;;;22.40;;
25381;SDS011;16307;42.896;20.874;2022-12-24T11:41:20;37.15;;;19.98;;
25381;SDS011;16307;42.896;20.874;2022-12-24T11:44:07;39.75;;;22.23;;
25381;SDS011;16307;42.896;20.874;2022-12-24T11:46:54;35.50;;;18.70;;
25381;SDS011;16307;42.896;20.874;2022-12-24T11:49:43;36.75;;;20.27;;
25381;SDS011;16307;42.896;20.874;2022-12-24T11:52:29;56.40;;;22.48;;
25381;SDS011;16307;42.896;20.874;2022-12-24T11:56:04;32.80;;;14.65;;
25381;SDS011;16307;42.896;20.874;2022-12-24T12:01:33;28.83;;;16.52;;
25381;SDS011;16307;42.896;20.874;2022-12-24T12:04:26;30.67;;;16.48;;
25381;SDS011;16307;42.896;20.874;2022-12-24T12:07:24;28.80;;;16.45;;
25381;SDS011;16307;42.896;20.874;2022-12-24T12:10:26;28.77;;;16.08;;
25381;SDS011;16307;42.896;20.874;2022-12-24T12:13:19;29.42;;;15.75;;
25381;SDS011;16307;42.896;20.874;2022-12-24T12:20:23;41.38;;;19.80;;
25381;SDS011;16307;42.896;20.874;2022-12-24T12:23:25;35.58;;;19.88;;
25381;SDS011;16307;42.896;20.874;2022-12-24T12:26:07;41.15;;;21.02;;
25381;SDS011;16307;42.896;20.874;2022-12-24T12:28:58;39.65;;;20.33;;
25381;SDS011;16307;42.896;20.874;2022-12-24T12:31:47;34.22;;;19.27;;
25381;SDS011;16307;42.896;20.874;2022-12-24T12:35:37;30.75;;;17.58;;
25381;SDS011;16307;42.896;20.874;2022-12-24T12:38:05;27.55;;;17.52;;
25381;SDS011;16307;42.896;20.874;2022-12-24T12:46:47;25.20;;;15.52;;
25381;SDS011;16307;42.896;20.874;2022-12-24T12:53:10;280.17;;;98.30;;
25381;SDS011;16307;42.896;20.874;2022-12-24T12:59:36;50.13;;;23.77;;
25381;SDS011;16307;42.896;20.874;2022-12-24T13:06:21;40.08;;;19.88;;
25381;SDS011;16307;42.896;20.874;2022-12-24T13:09:27;35.33;;;17.50;;
25381;SDS011;16307;42.896;20.874;2022-12-24T13:22:13;30.80;;;15.75;;
25381;SDS011;16307;42.896;20.874;2022-12-24T13:25:00;34.80;;;17.70;;
25381;SDS011;16307;42.896;20.874;2022-12-24T13:27:46;28.30;;;14.68;;
25381;SDS011;16307;42.896;20.874;2022-12-24T13:30:39;25.63;;;14.73;;
25381;SDS011;16307;42.896;20.874;2022-12-24T13:36:23;24.92;;;13.38;;
25381;SDS011;16307;42.896;20.874;2022-12-24T13:39:17;31.73;;;16.42;;
25381;SDS011;16307;42.896;20.874;2022-12-24T13:42:05;30.75;;;14.90;;
25381;SDS011;16307;42.896;20.874;2022-12-24T13:45:03;24.75;;;14.50;;
25381;SDS011;16307;42.896;20.874;2022-12-24T13:51:18;26.02;;;13.75;;
25381;SDS011;16307;42.896;20.874;2022-12-24T13:54:08;26.35;;;12.07;;
25381;SDS011;16307;42.896;20.874;2022-12-24T13:56:57;24.52;;;13.23;;
25381;SDS011;16307;42.896;20.874;2022-12-24T13:59:44;26.98;;;14.18;;
25381;SDS011;16307;42.896;20.874;2022-12-24T14:02:32;35.80;;;18.20;;
25381;SDS011;16307;42.896;20.874;2022-12-24T14:05:25;34.92;;;16.92;;
25381;SDS011;16307;42.896;20.874;2022-12-24T14:11:20;24.25;;;11.98;;
25381;SDS011;16307;42.896;20.874;2022-12-24T14:14:09;26.85;;;13.30;;
25381;SDS011;16307;42.896;20.874;2022-12-24T14:16:57;26.13;;;14.55;;
25381;SDS011;16307;42.896;20.874;2022-12-24T14:19:55;487.08;;;124.88;;
25381;SDS011;16307;42.896;20.874;2022-12-24T14:22:45;87.60;;;29.60;;
25381;SDS011;16307;42.896;20.874;2022-12-24T14:25:32;38.13;;;16.63;;
25381;SDS011;16307;42.896;20.874;2022-12-24T14:28:19;33.20;;;17.13;;
25381;SDS011;16307;42.896;20.874;2022-12-24T14:31:15;22.92;;;12.50;;
25381;SDS011;16307;42.896;20.874;2022-12-24T14:34:06;22.00;;;11.68;;
25381;SDS011;16307;42.896;20.874;2022-12-24T14:36:54;20.95;;;10.10;;
25381;SDS011;16307;42.896;20.874;2022-12-24T14:39:42;18.58;;;10.45;;
25381;SDS011;16307;42.896;20.874;2022-12-24T14:46:04;24.17;;;11.38;;
25381;SDS011;16307;42.896;20.874;2022-12-24T14:51:59;22.13;;;12.95;;
25381;SDS011;16307;42.896;20.874;2022-12-24T14:54:48;22.48;;;12.48;;
25381;SDS011;16307;42.896;20.874;2022-12-24T14:57:34;21.98;;;11.00;;
25381;SDS011;16307;42.896;20.874;2022-12-24T15:00:19;18.25;;;10.00;;
25381;SDS011;16307;42.896;20.874;2022-12-24T15:03:09;20.63;;;11.77;;
25381;SDS011;16307;42.896;20.874;2022-12-24T15:05:59;22.25;;;12.20;;
25381;SDS011;16307;42.896;20.874;2022-12-24T15:08:47;18.77;;;11.43;;
25381;SDS011;16307;42.896;20.874;2022-12-24T15:11:34;18.48;;;12.07;;
25381;SDS011;16307;42.896;20.874;2022-12-24T15:14:21;20.52;;;11.82;;
25381;SDS011;16307;42.896;20.874;2022-12-24T15:17:09;19.42;;;11.68;;
25381;SDS011;16307;42.896;20.874;2022-12-24T15:19:57;20.00;;;12.25;;
25381;SDS011;16307;42.896;20.874;2022-12-24T15:22:44;17.25;;;10.60;;
25381;SDS011;16307;42.896;20.874;2022-12-24T15:25:31;19.83;;;11.10;;
25381;SDS011;16307;42.896;20.874;2022-12-24T15:28:18;17.13;;;9.77;;
25381;SDS011;16307;42.896;20.874;2022-12-24T15:31:10;16.67;;;10.15;;
25381;SDS011;16307;42.896;20.874;2022-12-24T15:33:58;14.00;;;8.82;;
25381;SDS011;16307;42.896;20.874;2022-12-24T15:36:45;17.10;;;9.82;;
25381;SDS011;16307;42.896;20.874;2022-12-24T15:39:31;14.82;;;9.63;;
25381;SDS011;16307;42.896;20.874;2022-12-24T15:42:17;18.52;;;11.02;;
25381;SDS011;16307;42.896;20.874;2022-12-24T15:45:05;19.55;;;11.40;;
25381;SDS011;16307;42.896;20.874;2022-12-24T15:47:59;20.38;;;12.40;;
25381;SDS011;16307;42.896;20.874;2022-12-24T15:50:52;21.88;;;11.50;;
25381;SDS011;16307;42.896;20.874;2022-12-24T15:53:41;21.27;;;11.90;;
25381;SDS011;16307;42.896;20.874;2022-12-24T15:59:29;19.63;;;11.25;;
25381;SDS011;16307;42.896;20.874;2022-12-24T16:02:18;20.73;;;10.90;;
25381;SDS011;16307;42.896;20.874;2022-12-24T16:08:21;17.63;;;10.38;;
25381;SDS011;16307;42.896;20.874;2022-12-24T16:14:12;19.23;;;12.13;;
25381;SDS011;16307;42.896;20.874;2022-12-24T16:17:01;19.13;;;11.77;;
25381;SDS011;16307;42.896;20.874;2022-12-24T16:19:48;21.55;;;13.13;;
25381;SDS011;16307;42.896;20.874;2022-12-24T16:22:36;17.92;;;10.90;;
25381;SDS011;16307;42.896;20.874;2022-12-24T16:25:26;20.17;;;12.07;;
25381;SDS011;16307;42.896;20.874;2022-12-24T16:28:13;22.05;;;12.40;;
25381;SDS011;16307;42.896;20.874;2022-12-24T16:31:11;22.40;;;13.80;;
25381;SDS011;16307;42.896;20.874;2022-12-24T16:34:02;20.75;;;12.90;;
25381;SDS011;16307;42.896;20.874;2022-12-24T16:36:49;22.40;;;14.20;;
25381;SDS011;16307;42.896;20.874;2022-12-24T16:39:35;29.02;;;15.50;;
25381;SDS011;16307;42.896;20.874;2022-12-24T16:42:21;22.67;;;13.43;;
25381;SDS011;16307;42.896;20.874;2022-12-24T16:45:27;20.02;;;11.80;;
25381;SDS011;16307;42.896;20.874;2022-12-24T16:48:21;14.73;;;10.50;;
25381;SDS011;16307;42.896;20.874;2022-12-24T16:51:08;16.33;;;10.23;;
25381;SDS011;16307;42.896;20.874;2022-12-24T16:53:54;16.88;;;9.88;;
25381;SDS011;16307;42.896;20.874;2022-12-24T16:56:40;18.00;;;11.13;;
25381;SDS011;16307;42.896;20.874;2022-12-24T16:59:27;15.93;;;10.65;;
25381;SDS011;16307;42.896;20.874;2022-12-24T17:02:14;19.58;;;12.00;;
25381;SDS011;16307;42.896;20.874;2022-12-24T17:05:02;19.92;;;11.80;;
25381;SDS011;16307;42.896;20.874;2022-12-24T17:07:48;21.77;;;13.45;;
25381;SDS011;16307;42.896;20.874;2022-12-24T17:10:34;16.15;;;10.27;;
25381;SDS011;16307;42.896;20.874;2022-12-24T17:13:21;17.23;;;10.32;;
25381;SDS011;16307;42.896;20.874;2022-12-24T17:16:07;14.88;;;9.60;;
25381;SDS011;16307;42.896;20.874;2022-12-24T17:18:53;15.18;;;9.65;;
25381;SDS011;16307;42.896;20.874;2022-12-24T17:21:39;19.33;;;10.38;;
25381;SDS011;16307;42.896;20.874;2022-12-24T17:24:25;18.00;;;10.90;;
25381;SDS011;16307;42.896;20.874;2022-12-24T17:27:11;15.23;;;9.63;;
25381;SDS011;16307;42.896;20.874;2022-12-24T17:29:57;15.98;;;10.35;;
25381;SDS011;16307;42.896;20.874;2022-12-24T17:32:43;17.70;;;9.82;;
25381;SDS011;16307;42.896;20.874;2022-12-24T17:35:29;21.77;;;12.50;;
25381;SDS011;16307;42.896;20.874;2022-12-24T17:38:16;19.23;;;11.30;;
25381;SDS011;16307;42.896;20.874;2022-12-24T17:41:03;20.75;;;12.10;;
25381;SDS011;16307;42.896;20.874;2022-12-24T17:43:50;19.33;;;10.50;;
25381;SDS011;16307;42.896;20.874;2022-12-24T17:46:36;15.93;;;10.82;;